sensor_id;sensor_type;location;lat;lon;timestamp;P1;durP1;ratioP1;P2;durP2;ratioP2
7835;SDS011;3963;42.658;23.298;2023-02-18T00:01:30;25.50;;;14.50;;
7835;SDS011;3963;42.658;23.298;2023-02-18T00:03:57;24.93;;;13.43;;
7835;SDS011;3963;42.658;23.298;2023-02-18T00:06:26;25.07;;;13.77;;
7835;SDS011;3963;42.658;23.298;2023-02-18T00:08:55;26.10;;;13.73;;
7835;SDS011;3963;42.658;23.298;2023-02-18T00:11:28;24.17;;;13.50;;
7835;SDS011;3963;42.658;23.298;2023-02-18T00:13:57;25.50;;;11.80;;
7835;SDS011;3963;42.658;23.298;2023-02-18T00:16:26;25.33;;;12.67;;
7835;SDS011;3963;42.658;23.298;2023-02-18T00:18:54;28.50;;;12.97;;
7835;SDS011;3963;42.658;23.298;2023-02-18T00:21:21;25.33;;;12.97;;
7835;SDS011;3963;42.658;23.298;2023-02-18T00:23:48;24.70;;;12.63;;
7835;SDS011;3963;42.658;23.298;2023-02-18T00:26:15;29.97;;;12.27;;
7835;SDS011;3963;42.658;23.298;2023-02-18T00:28:45;22.77;;;12.03;;
7835;SDS011;3963;42.658;23.298;2023-02-18T00:31:14;29.03;;;13.40;;
7835;SDS011;3963;42.658;23.298;2023-02-18T00:33:42;26.23;;;12.43;;
7835;SDS011;3963;42.658;23.298;2023-02-18T00:36:10;22.43;;;11.53;;
7835;SDS011;3963;42.658;23.298;2023-02-18T00:38:38;23.00;;;12.00;;
7835;SDS011;3963;42.658;23.298;2023-02-18T00:41:08;22.30;;;12.57;;
7835;SDS011;3963;42.658;23.298;2023-02-18T00:43:35;23.77;;;13.00;;
7835;SDS011;3963;42.658;23.298;2023-02-18T00:46:03;25.60;;;12.53;;
7835;SDS011;3963;42.658;23.298;2023-02-18T00:48:31;30.60;;;13.47;;
7835;SDS011;3963;42.658;23.298;2023-02-18T00:50:58;23.10;;;13.03;;
7835;SDS011;3963;42.658;23.298;2023-02-18T00:53:25;24.07;;;12.47;;
7835;SDS011;3963;42.658;23.298;2023-02-18T00:55:52;25.97;;;12.73;;
7835;SDS011;3963;42.658;23.298;2023-02-18T00:58:19;26.73;;;12.73;;
7835;SDS011;3963;42.658;23.298;2023-02-18T01:00:46;22.93;;;13.17;;
7835;SDS011;3963;42.658;23.298;2023-02-18T01:03:15;26.60;;;12.60;;
7835;SDS011;3963;42.658;23.298;2023-02-18T01:05:43;21.63;;;12.10;;
7835;SDS011;3963;42.658;23.298;2023-02-18T01:08:10;24.03;;;12.00;;
7835;SDS011;3963;42.658;23.298;2023-02-18T01:10:39;22.30;;;12.83;;
7835;SDS011;3963;42.658;23.298;2023-02-18T01:13:08;24.23;;;12.73;;
7835;SDS011;3963;42.658;23.298;2023-02-18T01:15:36;23.10;;;12.57;;
7835;SDS011;3963;42.658;23.298;2023-02-18T01:18:03;27.33;;;13.10;;
7835;SDS011;3963;42.658;23.298;2023-02-18T01:20:33;26.63;;;13.03;;
7835;SDS011;3963;42.658;23.298;2023-02-18T01:23:01;25.37;;;13.10;;
7835;SDS011;3963;42.658;23.298;2023-02-18T01:25:28;27.40;;;12.87;;
7835;SDS011;3963;42.658;23.298;2023-02-18T01:27:55;24.03;;;12.10;;
7835;SDS011;3963;42.658;23.298;2023-02-18T01:30:22;24.10;;;12.03;;
7835;SDS011;3963;42.658;23.298;2023-02-18T01:32:49;23.30;;;12.13;;
7835;SDS011;3963;42.658;23.298;2023-02-18T01:35:17;21.13;;;11.47;;
7835;SDS011;3963;42.658;23.298;2023-02-18T01:37:47;25.73;;;12.37;;
7835;SDS011;3963;42.658;23.298;2023-02-18T01:40:15;23.73;;;12.73;;
7835;SDS011;3963;42.658;23.298;2023-02-18T01:42:49;20.30;;;11.97;;
7835;SDS011;3963;42.658;23.298;2023-02-18T01:45:39;22.80;;;12.10;;
7835;SDS011;3963;42.658;23.298;2023-02-18T01:48:14;24.47;;;11.60;;
7835;SDS011;3963;42.658;23.298;2023-02-18T01:50:44;22.73;;;11.53;;
7835;SDS011;3963;42.658;23.298;2023-02-18T01:53:16;22.93;;;11.50;;
7835;SDS011;3963;42.658;23.298;2023-02-18T01:55:47;23.60;;;12.27;;
7835;SDS011;3963;42.658;23.298;2023-02-18T01:58:14;26.43;;;12.23;;
7835;SDS011;3963;42.658;23.298;2023-02-18T02:00:41;22.90;;;13.63;;
7835;SDS011;3963;42.658;23.298;2023-02-18T02:03:08;26.83;;;13.60;;
7835;SDS011;3963;42.658;23.298;2023-02-18T02:05:35;26.13;;;14.17;;
7835;SDS011;3963;42.658;23.298;2023-02-18T02:08:02;22.03;;;12.50;;
7835;SDS011;3963;42.658;23.298;2023-02-18T02:10:40;30.97;;;13.80;;
7835;SDS011;3963;42.658;23.298;2023-02-18T02:13:19;25.67;;;13.00;;
7835;SDS011;3963;42.658;23.298;2023-02-18T02:15:56;26.00;;;12.73;;
7835;SDS011;3963;42.658;23.298;2023-02-18T02:18:33;23.40;;;12.90;;
7835;SDS011;3963;42.658;23.298;2023-02-18T02:27:31;22.23;;;11.40;;
7835;SDS011;3963;42.658;23.298;2023-02-18T02:33:39;25.47;;;12.30;;
7835;SDS011;3963;42.658;23.298;2023-02-18T02:36:27;27.47;;;13.87;;
7835;SDS011;3963;42.658;23.298;2023-02-18T02:39:03;21.90;;;13.63;;
7835;SDS011;3963;42.658;23.298;2023-02-18T02:41:41;22.63;;;11.67;;
7835;SDS011;3963;42.658;23.298;2023-02-18T02:44:15;21.40;;;12.07;;
7835;SDS011;3963;42.658;23.298;2023-02-18T02:46:46;20.87;;;12.40;;
7835;SDS011;3963;42.658;23.298;2023-02-18T02:49:23;21.60;;;12.07;;
7835;SDS011;3963;42.658;23.298;2023-02-18T02:52:00;26.03;;;11.83;;
7835;SDS011;3963;42.658;23.298;2023-02-18T02:54:30;22.80;;;12.57;;
7835;SDS011;3963;42.658;23.298;2023-02-18T02:57:04;25.53;;;12.37;;
7835;SDS011;3963;42.658;23.298;2023-02-18T02:59:33;24.40;;;12.13;;
7835;SDS011;3963;42.658;23.298;2023-02-18T03:02:07;24.20;;;10.77;;
7835;SDS011;3963;42.658;23.298;2023-02-18T03:04:51;22.90;;;12.67;;
7835;SDS011;3963;42.658;23.298;2023-02-18T03:10:24;21.97;;;12.00;;
7835;SDS011;3963;42.658;23.298;2023-02-18T03:13:03;21.40;;;11.87;;
7835;SDS011;3963;42.658;23.298;2023-02-18T03:15:38;24.23;;;12.43;;
7835;SDS011;3963;42.658;23.298;2023-02-18T03:18:14;19.97;;;10.97;;
7835;SDS011;3963;42.658;23.298;2023-02-18T03:20:48;19.33;;;11.77;;
7835;SDS011;3963;42.658;23.298;2023-02-18T03:23:21;20.67;;;11.00;;
7835;SDS011;3963;42.658;23.298;2023-02-18T03:25:53;23.03;;;11.83;;
7835;SDS011;3963;42.658;23.298;2023-02-18T03:28:22;24.03;;;12.90;;
7835;SDS011;3963;42.658;23.298;2023-02-18T03:30:57;21.57;;;11.47;;
7835;SDS011;3963;42.658;23.298;2023-02-18T03:33:29;23.40;;;12.17;;
7835;SDS011;3963;42.658;23.298;2023-02-18T03:35:59;24.63;;;12.33;;
7835;SDS011;3963;42.658;23.298;2023-02-18T03:38:28;25.63;;;13.00;;
7835;SDS011;3963;42.658;23.298;2023-02-18T03:41:00;28.90;;;13.83;;
7835;SDS011;3963;42.658;23.298;2023-02-18T03:43:27;23.97;;;12.63;;
7835;SDS011;3963;42.658;23.298;2023-02-18T03:45:54;21.80;;;12.00;;
7835;SDS011;3963;42.658;23.298;2023-02-18T03:48:21;22.87;;;12.10;;
7835;SDS011;3963;42.658;23.298;2023-02-18T03:50:48;22.33;;;11.67;;
7835;SDS011;3963;42.658;23.298;2023-02-18T03:53:14;24.53;;;12.83;;
7835;SDS011;3963;42.658;23.298;2023-02-18T03:55:42;20.53;;;11.73;;
7835;SDS011;3963;42.658;23.298;2023-02-18T03:58:09;22.23;;;11.13;;
7835;SDS011;3963;42.658;23.298;2023-02-18T04:00:36;25.23;;;12.63;;
7835;SDS011;3963;42.658;23.298;2023-02-18T04:03:03;24.17;;;12.37;;
7835;SDS011;3963;42.658;23.298;2023-02-18T04:05:29;21.87;;;12.30;;
7835;SDS011;3963;42.658;23.298;2023-02-18T04:07:56;25.60;;;12.37;;
7835;SDS011;3963;42.658;23.298;2023-02-18T04:10:23;21.13;;;11.93;;
7835;SDS011;3963;42.658;23.298;2023-02-18T04:12:51;19.40;;;10.97;;
7835;SDS011;3963;42.658;23.298;2023-02-18T04:15:18;20.77;;;11.87;;
7835;SDS011;3963;42.658;23.298;2023-02-18T04:17:44;25.77;;;12.47;;
7835;SDS011;3963;42.658;23.298;2023-02-18T04:20:11;20.17;;;11.57;;
7835;SDS011;3963;42.658;23.298;2023-02-18T04:22:40;22.57;;;11.60;;
7835;SDS011;3963;42.658;23.298;2023-02-18T04:25:07;24.73;;;11.50;;
7835;SDS011;3963;42.658;23.298;2023-02-18T04:27:34;26.13;;;12.27;;
7835;SDS011;3963;42.658;23.298;2023-02-18T04:30:03;25.87;;;11.83;;
7835;SDS011;3963;42.658;23.298;2023-02-18T04:32:30;18.90;;;11.37;;
7835;SDS011;3963;42.658;23.298;2023-02-18T04:34:57;20.43;;;11.23;;
7835;SDS011;3963;42.658;23.298;2023-02-18T04:37:24;24.00;;;11.90;;
7835;SDS011;3963;42.658;23.298;2023-02-18T04:39:51;20.90;;;10.60;;
7835;SDS011;3963;42.658;23.298;2023-02-18T04:42:18;22.33;;;12.37;;
7835;SDS011;3963;42.658;23.298;2023-02-18T04:44:44;23.03;;;11.97;;
7835;SDS011;3963;42.658;23.298;2023-02-18T04:47:12;22.80;;;12.00;;
7835;SDS011;3963;42.658;23.298;2023-02-18T04:49:39;21.20;;;11.47;;
7835;SDS011;3963;42.658;23.298;2023-02-18T04:52:06;20.87;;;11.03;;
7835;SDS011;3963;42.658;23.298;2023-02-18T04:54:33;19.63;;;11.00;;
7835;SDS011;3963;42.658;23.298;2023-02-18T04:56:59;22.20;;;12.30;;
7835;SDS011;3963;42.658;23.298;2023-02-18T04:59:26;21.23;;;10.63;;
7835;SDS011;3963;42.658;23.298;2023-02-18T05:01:53;18.97;;;11.53;;
7835;SDS011;3963;42.658;23.298;2023-02-18T05:04:21;22.13;;;11.53;;
7835;SDS011;3963;42.658;23.298;2023-02-18T05:06:47;24.63;;;12.13;;
7835;SDS011;3963;42.658;23.298;2023-02-18T05:09:14;23.03;;;12.37;;
7835;SDS011;3963;42.658;23.298;2023-02-18T05:11:41;16.83;;;11.63;;
7835;SDS011;3963;42.658;23.298;2023-02-18T05:14:08;19.27;;;12.07;;
7835;SDS011;3963;42.658;23.298;2023-02-18T05:16:36;21.10;;;11.53;;
7835;SDS011;3963;42.658;23.298;2023-02-18T05:19:02;21.83;;;13.03;;
7835;SDS011;3963;42.658;23.298;2023-02-18T05:21:30;22.87;;;12.07;;
7835;SDS011;3963;42.658;23.298;2023-02-18T05:23:58;16.77;;;10.50;;
7835;SDS011;3963;42.658;23.298;2023-02-18T05:26:24;23.20;;;12.33;;
7835;SDS011;3963;42.658;23.298;2023-02-18T05:28:51;30.60;;;12.10;;
7835;SDS011;3963;42.658;23.298;2023-02-18T05:31:18;24.70;;;12.30;;
7835;SDS011;3963;42.658;23.298;2023-02-18T05:33:45;27.00;;;12.13;;
7835;SDS011;3963;42.658;23.298;2023-02-18T05:36:12;23.53;;;11.33;;
7835;SDS011;3963;42.658;23.298;2023-02-18T05:38:41;23.70;;;12.87;;
7835;SDS011;3963;42.658;23.298;2023-02-18T05:41:08;22.93;;;12.17;;
7835;SDS011;3963;42.658;23.298;2023-02-18T05:43:34;27.97;;;13.63;;
7835;SDS011;3963;42.658;23.298;2023-02-18T05:46:21;21.93;;;13.63;;
7835;SDS011;3963;42.658;23.298;2023-02-18T05:48:48;27.40;;;12.90;;
7835;SDS011;3963;42.658;23.298;2023-02-18T05:51:15;21.63;;;12.13;;
7835;SDS011;3963;42.658;23.298;2023-02-18T05:53:43;21.10;;;12.13;;
7835;SDS011;3963;42.658;23.298;2023-02-18T05:56:10;27.33;;;13.03;;
7835;SDS011;3963;42.658;23.298;2023-02-18T05:58:37;23.90;;;11.80;;
7835;SDS011;3963;42.658;23.298;2023-02-18T06:01:04;22.73;;;12.30;;
7835;SDS011;3963;42.658;23.298;2023-02-18T06:03:30;26.77;;;13.67;;
7835;SDS011;3963;42.658;23.298;2023-02-18T06:05:57;26.10;;;13.93;;
7835;SDS011;3963;42.658;23.298;2023-02-18T06:08:24;24.10;;;13.67;;
7835;SDS011;3963;42.658;23.298;2023-02-18T06:10:53;29.57;;;14.40;;
7835;SDS011;3963;42.658;23.298;2023-02-18T06:13:20;27.50;;;13.50;;
7835;SDS011;3963;42.658;23.298;2023-02-18T06:15:48;29.60;;;14.93;;
7835;SDS011;3963;42.658;23.298;2023-02-18T06:18:15;26.43;;;13.57;;
7835;SDS011;3963;42.658;23.298;2023-02-18T06:20:42;24.37;;;13.57;;
7835;SDS011;3963;42.658;23.298;2023-02-18T06:23:09;22.67;;;12.70;;
7835;SDS011;3963;42.658;23.298;2023-02-18T06:25:36;23.60;;;13.33;;
7835;SDS011;3963;42.658;23.298;2023-02-18T06:28:04;24.20;;;12.73;;
7835;SDS011;3963;42.658;23.298;2023-02-18T06:30:31;26.37;;;13.77;;
7835;SDS011;3963;42.658;23.298;2023-02-18T06:32:57;25.43;;;13.40;;
7835;SDS011;3963;42.658;23.298;2023-02-18T06:35:24;24.67;;;14.17;;
7835;SDS011;3963;42.658;23.298;2023-02-18T06:37:51;30.33;;;13.93;;
7835;SDS011;3963;42.658;23.298;2023-02-18T06:40:18;24.83;;;14.70;;
7835;SDS011;3963;42.658;23.298;2023-02-18T06:42:44;26.17;;;14.23;;
7835;SDS011;3963;42.658;23.298;2023-02-18T06:45:13;28.43;;;16.93;;
7835;SDS011;3963;42.658;23.298;2023-02-18T06:47:39;28.50;;;15.03;;
7835;SDS011;3963;42.658;23.298;2023-02-18T06:50:06;27.30;;;14.77;;
7835;SDS011;3963;42.658;23.298;2023-02-18T06:52:33;31.03;;;14.47;;
7835;SDS011;3963;42.658;23.298;2023-02-18T06:55:02;29.17;;;14.37;;
7835;SDS011;3963;42.658;23.298;2023-02-18T06:57:29;29.57;;;14.20;;
7835;SDS011;3963;42.658;23.298;2023-02-18T06:59:56;27.70;;;12.03;;
7835;SDS011;3963;42.658;23.298;2023-02-18T07:02:24;26.07;;;13.83;;
7835;SDS011;3963;42.658;23.298;2023-02-18T07:04:51;29.77;;;12.03;;
7835;SDS011;3963;42.658;23.298;2023-02-18T07:07:18;26.67;;;12.10;;
7835;SDS011;3963;42.658;23.298;2023-02-18T07:09:44;21.77;;;12.53;;
7835;SDS011;3963;42.658;23.298;2023-02-18T07:12:11;21.80;;;12.50;;
7835;SDS011;3963;42.658;23.298;2023-02-18T07:14:38;26.00;;;14.23;;
7835;SDS011;3963;42.658;23.298;2023-02-18T07:17:05;25.53;;;13.87;;
7835;SDS011;3963;42.658;23.298;2023-02-18T07:19:33;29.73;;;14.57;;
7835;SDS011;3963;42.658;23.298;2023-02-18T07:21:59;30.20;;;14.80;;
7835;SDS011;3963;42.658;23.298;2023-02-18T07:24:26;32.47;;;14.90;;
7835;SDS011;3963;42.658;23.298;2023-02-18T07:26:53;34.00;;;15.90;;
7835;SDS011;3963;42.658;23.298;2023-02-18T07:29:19;27.53;;;15.20;;
7835;SDS011;3963;42.658;23.298;2023-02-18T07:31:46;29.33;;;15.33;;
7835;SDS011;3963;42.658;23.298;2023-02-18T07:34:13;24.47;;;14.43;;
7835;SDS011;3963;42.658;23.298;2023-02-18T07:36:41;28.50;;;15.20;;
7835;SDS011;3963;42.658;23.298;2023-02-18T07:39:08;27.67;;;11.87;;
7835;SDS011;3963;42.658;23.298;2023-02-18T07:41:35;28.87;;;12.33;;
7835;SDS011;3963;42.658;23.298;2023-02-18T07:44:02;22.83;;;12.50;;
7835;SDS011;3963;42.658;23.298;2023-02-18T07:46:29;19.37;;;12.23;;
7835;SDS011;3963;42.658;23.298;2023-02-18T07:48:55;25.03;;;11.90;;
7835;SDS011;3963;42.658;23.298;2023-02-18T07:51:22;25.40;;;12.87;;
7835;SDS011;3963;42.658;23.298;2023-02-18T07:53:51;26.23;;;12.77;;
7835;SDS011;3963;42.658;23.298;2023-02-18T07:56:17;20.37;;;12.30;;
7835;SDS011;3963;42.658;23.298;2023-02-18T07:58:44;22.20;;;11.50;;
7835;SDS011;3963;42.658;23.298;2023-02-18T08:01:11;28.33;;;12.40;;
7835;SDS011;3963;42.658;23.298;2023-02-18T08:03:40;26.43;;;12.00;;
7835;SDS011;3963;42.658;23.298;2023-02-18T08:06:07;29.27;;;11.80;;
7835;SDS011;3963;42.658;23.298;2023-02-18T08:08:40;26.40;;;11.13;;
7835;SDS011;3963;42.658;23.298;2023-02-18T08:11:08;22.13;;;12.63;;
7835;SDS011;3963;42.658;23.298;2023-02-18T08:13:35;23.53;;;11.87;;
7835;SDS011;3963;42.658;23.298;2023-02-18T08:16:01;27.23;;;11.33;;
7835;SDS011;3963;42.658;23.298;2023-02-18T08:18:28;24.27;;;10.73;;
7835;SDS011;3963;42.658;23.298;2023-02-18T08:20:55;28.30;;;12.60;;
7835;SDS011;3963;42.658;23.298;2023-02-18T08:23:22;33.07;;;13.53;;
7835;SDS011;3963;42.658;23.298;2023-02-18T08:25:50;22.87;;;11.70;;
7835;SDS011;3963;42.658;23.298;2023-02-18T08:28:19;22.23;;;11.23;;
7835;SDS011;3963;42.658;23.298;2023-02-18T08:30:47;22.77;;;10.60;;
7835;SDS011;3963;42.658;23.298;2023-02-18T08:33:15;21.37;;;10.03;;
7835;SDS011;3963;42.658;23.298;2023-02-18T08:35:43;20.93;;;10.97;;
7835;SDS011;3963;42.658;23.298;2023-02-18T08:38:11;19.00;;;9.53;;
7835;SDS011;3963;42.658;23.298;2023-02-18T08:40:38;18.33;;;10.33;;
7835;SDS011;3963;42.658;23.298;2023-02-18T08:43:06;21.63;;;11.47;;
7835;SDS011;3963;42.658;23.298;2023-02-18T08:45:35;24.40;;;10.73;;
7835;SDS011;3963;42.658;23.298;2023-02-18T08:48:02;17.40;;;10.50;;
7835;SDS011;3963;42.658;23.298;2023-02-18T08:50:29;31.83;;;11.53;;
7835;SDS011;3963;42.658;23.298;2023-02-18T08:52:56;24.77;;;12.17;;
7835;SDS011;3963;42.658;23.298;2023-02-18T08:55:24;19.43;;;11.00;;
7835;SDS011;3963;42.658;23.298;2023-02-18T08:57:51;19.77;;;11.07;;
7835;SDS011;3963;42.658;23.298;2023-02-18T09:00:18;26.90;;;11.37;;
7835;SDS011;3963;42.658;23.298;2023-02-18T09:02:46;21.63;;;12.13;;
7835;SDS011;3963;42.658;23.298;2023-02-18T09:05:13;21.57;;;11.80;;
7835;SDS011;3963;42.658;23.298;2023-02-18T09:07:40;22.80;;;12.20;;
7835;SDS011;3963;42.658;23.298;2023-02-18T09:10:07;20.67;;;11.07;;
7835;SDS011;3963;42.658;23.298;2023-02-18T09:12:37;33.23;;;17.23;;
7835;SDS011;3963;42.658;23.298;2023-02-18T09:15:04;28.50;;;15.27;;
7835;SDS011;3963;42.658;23.298;2023-02-18T09:17:31;22.03;;;11.63;;
7835;SDS011;3963;42.658;23.298;2023-02-18T09:20:00;23.67;;;10.93;;
7835;SDS011;3963;42.658;23.298;2023-02-18T09:22:28;19.93;;;11.30;;
7835;SDS011;3963;42.658;23.298;2023-02-18T09:24:54;22.10;;;10.33;;
7835;SDS011;3963;42.658;23.298;2023-02-18T09:27:21;20.20;;;10.73;;
7835;SDS011;3963;42.658;23.298;2023-02-18T09:29:48;19.23;;;10.63;;
7835;SDS011;3963;42.658;23.298;2023-02-18T09:32:15;24.83;;;14.13;;
7835;SDS011;3963;42.658;23.298;2023-02-18T09:34:42;23.70;;;12.30;;
7835;SDS011;3963;42.658;23.298;2023-02-18T09:37:11;25.63;;;12.43;;
7835;SDS011;3963;42.658;23.298;2023-02-18T09:39:39;18.13;;;11.33;;
7835;SDS011;3963;42.658;23.298;2023-02-18T09:42:06;23.77;;;12.13;;
7835;SDS011;3963;42.658;23.298;2023-02-18T09:44:39;25.17;;;11.57;;
7835;SDS011;3963;42.658;23.298;2023-02-18T09:47:11;18.90;;;10.77;;
7835;SDS011;3963;42.658;23.298;2023-02-18T09:49:42;24.13;;;11.53;;
7835;SDS011;3963;42.658;23.298;2023-02-18T09:52:15;20.10;;;11.50;;
7835;SDS011;3963;42.658;23.298;2023-02-18T09:54:45;17.13;;;10.37;;
7835;SDS011;3963;42.658;23.298;2023-02-18T09:57:15;23.80;;;12.17;;
7835;SDS011;3963;42.658;23.298;2023-02-18T09:59:48;20.43;;;11.77;;
7835;SDS011;3963;42.658;23.298;2023-02-18T10:02:21;25.23;;;12.30;;
7835;SDS011;3963;42.658;23.298;2023-02-18T10:04:48;23.40;;;12.03;;
7835;SDS011;3963;42.658;23.298;2023-02-18T10:07:20;23.07;;;12.13;;
7835;SDS011;3963;42.658;23.298;2023-02-18T10:09:52;20.90;;;12.43;;
7835;SDS011;3963;42.658;23.298;2023-02-18T10:12:22;23.87;;;12.60;;
7835;SDS011;3963;42.658;23.298;2023-02-18T10:14:50;23.63;;;12.30;;
7835;SDS011;3963;42.658;23.298;2023-02-18T10:17:18;22.17;;;12.70;;
7835;SDS011;3963;42.658;23.298;2023-02-18T10:19:48;24.07;;;12.33;;
7835;SDS011;3963;42.658;23.298;2023-02-18T10:22:17;20.40;;;12.50;;
7835;SDS011;3963;42.658;23.298;2023-02-18T10:24:47;22.53;;;13.13;;
7835;SDS011;3963;42.658;23.298;2023-02-18T10:27:17;23.07;;;12.80;;
7835;SDS011;3963;42.658;23.298;2023-02-18T10:29:48;21.37;;;12.10;;
7835;SDS011;3963;42.658;23.298;2023-02-18T10:32:18;27.33;;;13.67;;
7835;SDS011;3963;42.658;23.298;2023-02-18T10:34:51;20.70;;;11.53;;
7835;SDS011;3963;42.658;23.298;2023-02-18T10:37:32;21.23;;;11.77;;
7835;SDS011;3963;42.658;23.298;2023-02-18T10:40:13;19.83;;;11.27;;
7835;SDS011;3963;42.658;23.298;2023-02-18T10:42:52;22.53;;;11.57;;
7835;SDS011;3963;42.658;23.298;2023-02-18T10:45:31;16.03;;;11.03;;
7835;SDS011;3963;42.658;23.298;2023-02-18T10:50:58;25.13;;;11.40;;
7835;SDS011;3963;42.658;23.298;2023-02-18T10:53:29;22.53;;;10.63;;
7835;SDS011;3963;42.658;23.298;2023-02-18T10:56:01;20.00;;;11.37;;
7835;SDS011;3963;42.658;23.298;2023-02-18T10:58:31;25.47;;;10.87;;
7835;SDS011;3963;42.658;23.298;2023-02-18T11:01:00;20.70;;;11.07;;
7835;SDS011;3963;42.658;23.298;2023-02-18T11:03:38;20.97;;;11.13;;
7835;SDS011;3963;42.658;23.298;2023-02-18T11:06:14;20.13;;;10.33;;
7835;SDS011;3963;42.658;23.298;2023-02-18T11:08:45;22.97;;;10.93;;
7835;SDS011;3963;42.658;23.298;2023-02-18T11:11:15;19.73;;;10.77;;
7835;SDS011;3963;42.658;23.298;2023-02-18T11:13:50;23.17;;;12.30;;
7835;SDS011;3963;42.658;23.298;2023-02-18T11:16:20;21.77;;;10.67;;
7835;SDS011;3963;42.658;23.298;2023-02-18T11:18:47;20.37;;;10.00;;
7835;SDS011;3963;42.658;23.298;2023-02-18T11:21:19;21.97;;;9.97;;
7835;SDS011;3963;42.658;23.298;2023-02-18T11:23:51;21.80;;;11.40;;
7835;SDS011;3963;42.658;23.298;2023-02-18T11:26:23;21.33;;;10.83;;
7835;SDS011;3963;42.658;23.298;2023-02-18T11:28:56;16.70;;;10.00;;
7835;SDS011;3963;42.658;23.298;2023-02-18T11:31:28;18.27;;;10.07;;
7835;SDS011;3963;42.658;23.298;2023-02-18T11:34:04;15.53;;;9.37;;
7835;SDS011;3963;42.658;23.298;2023-02-18T11:36:32;19.63;;;9.97;;
7835;SDS011;3963;42.658;23.298;2023-02-18T11:39:03;17.70;;;9.53;;
7835;SDS011;3963;42.658;23.298;2023-02-18T11:41:35;18.37;;;9.03;;
7835;SDS011;3963;42.658;23.298;2023-02-18T11:44:05;16.17;;;8.27;;
7835;SDS011;3963;42.658;23.298;2023-02-18T11:46:47;15.00;;;8.03;;
7835;SDS011;3963;42.658;23.298;2023-02-18T11:49:22;12.97;;;7.67;;
7835;SDS011;3963;42.658;23.298;2023-02-18T11:51:50;16.70;;;8.33;;
7835;SDS011;3963;42.658;23.298;2023-02-18T11:54:22;17.87;;;7.07;;
7835;SDS011;3963;42.658;23.298;2023-02-18T11:56:56;13.90;;;7.17;;
7835;SDS011;3963;42.658;23.298;2023-02-18T11:59:25;5.47;;;2.73;;
7835;SDS011;3963;42.658;23.298;2023-02-18T12:01:56;6.43;;;3.57;;
7835;SDS011;3963;42.658;23.298;2023-02-18T12:04:32;6.93;;;2.23;;
7835;SDS011;3963;42.658;23.298;2023-02-18T12:07:11;7.43;;;2.10;;
7835;SDS011;3963;42.658;23.298;2023-02-18T12:09:45;6.40;;;2.37;;
7835;SDS011;3963;42.658;23.298;2023-02-18T12:12:16;5.23;;;2.80;;
7835;SDS011;3963;42.658;23.298;2023-02-18T12:14:49;8.30;;;5.10;;
7835;SDS011;3963;42.658;23.298;2023-02-18T12:17:36;2.37;;;1.97;;
7835;SDS011;3963;42.658;23.298;2023-02-18T12:20:18;5.63;;;2.97;;
7835;SDS011;3963;42.658;23.298;2023-02-18T12:23:12;4.60;;;2.17;;
7835;SDS011;3963;42.658;23.298;2023-02-18T12:25:50;4.40;;;2.40;;
7835;SDS011;3963;42.658;23.298;2023-02-18T12:28:32;4.57;;;2.17;;
7835;SDS011;3963;42.658;23.298;2023-02-18T12:34:11;5.10;;;2.40;;
7835;SDS011;3963;42.658;23.298;2023-02-18T12:36:55;5.83;;;2.70;;
7835;SDS011;3963;42.658;23.298;2023-02-18T12:39:34;5.73;;;2.40;;
7835;SDS011;3963;42.658;23.298;2023-02-18T12:42:16;4.57;;;2.70;;
7835;SDS011;3963;42.658;23.298;2023-02-18T12:44:55;3.37;;;2.30;;
7835;SDS011;3963;42.658;23.298;2023-02-18T12:47:40;3.90;;;1.97;;
7835;SDS011;3963;42.658;23.298;2023-02-18T12:50:36;3.57;;;2.50;;
7835;SDS011;3963;42.658;23.298;2023-02-18T12:53:18;3.80;;;2.90;;
7835;SDS011;3963;42.658;23.298;2023-02-18T12:56:11;6.27;;;3.07;;
7835;SDS011;3963;42.658;23.298;2023-02-18T12:59:14;3.83;;;2.60;;
7835;SDS011;3963;42.658;23.298;2023-02-18T13:01:55;3.37;;;2.30;;
7835;SDS011;3963;42.658;23.298;2023-02-18T13:04:33;5.37;;;2.77;;
7835;SDS011;3963;42.658;23.298;2023-02-18T13:07:30;3.47;;;2.40;;
7835;SDS011;3963;42.658;23.298;2023-02-18T13:10:19;4.73;;;2.90;;
7835;SDS011;3963;42.658;23.298;2023-02-18T13:12:56;10.43;;;3.10;;
7835;SDS011;3963;42.658;23.298;2023-02-18T13:15:30;6.00;;;3.30;;
7835;SDS011;3963;42.658;23.298;2023-02-18T13:18:08;8.03;;;3.47;;
7835;SDS011;3963;42.658;23.298;2023-02-18T13:20:39;6.77;;;3.00;;
7835;SDS011;3963;42.658;23.298;2023-02-18T13:23:09;7.17;;;3.47;;
7835;SDS011;3963;42.658;23.298;2023-02-18T13:25:42;5.73;;;3.40;;
7835;SDS011;3963;42.658;23.298;2023-02-18T13:28:12;7.00;;;3.40;;
7835;SDS011;3963;42.658;23.298;2023-02-18T13:30:46;6.13;;;3.50;;
7835;SDS011;3963;42.658;23.298;2023-02-18T13:33:21;8.17;;;3.50;;
7835;SDS011;3963;42.658;23.298;2023-02-18T13:35:55;6.53;;;3.23;;
7835;SDS011;3963;42.658;23.298;2023-02-18T13:41:16;7.57;;;2.90;;
7835;SDS011;3963;42.658;23.298;2023-02-18T13:43:44;6.80;;;3.20;;
7835;SDS011;3963;42.658;23.298;2023-02-18T13:46:12;8.93;;;2.93;;
7835;SDS011;3963;42.658;23.298;2023-02-18T13:48:46;8.57;;;3.97;;
7835;SDS011;3963;42.658;23.298;2023-02-18T13:51:14;9.27;;;3.80;;
7835;SDS011;3963;42.658;23.298;2023-02-18T13:53:43;10.87;;;4.23;;
7835;SDS011;3963;42.658;23.298;2023-02-18T13:56:19;8.97;;;3.17;;
7835;SDS011;3963;42.658;23.298;2023-02-18T13:58:48;9.10;;;3.67;;
7835;SDS011;3963;42.658;23.298;2023-02-18T14:01:22;5.73;;;3.30;;
7835;SDS011;3963;42.658;23.298;2023-02-18T14:03:59;5.17;;;3.37;;
7835;SDS011;3963;42.658;23.298;2023-02-18T14:06:28;7.97;;;3.70;;
7835;SDS011;3963;42.658;23.298;2023-02-18T14:12:16;8.63;;;4.20;;
7835;SDS011;3963;42.658;23.298;2023-02-18T14:14:50;7.67;;;4.60;;
7835;SDS011;3963;42.658;23.298;2023-02-18T14:20:28;8.63;;;3.87;;
7835;SDS011;3963;42.658;23.298;2023-02-18T14:26:21;9.03;;;4.27;;
7835;SDS011;3963;42.658;23.298;2023-02-18T14:28:54;9.03;;;4.70;;
7835;SDS011;3963;42.658;23.298;2023-02-18T14:34:21;11.80;;;5.17;;
7835;SDS011;3963;42.658;23.298;2023-02-18T14:37:03;10.53;;;5.20;;
7835;SDS011;3963;42.658;23.298;2023-02-18T14:39:48;7.40;;;4.67;;
7835;SDS011;3963;42.658;23.298;2023-02-18T14:42:23;5.77;;;4.03;;
7835;SDS011;3963;42.658;23.298;2023-02-18T14:45:06;9.30;;;5.10;;
7835;SDS011;3963;42.658;23.298;2023-02-18T14:47:44;6.10;;;4.90;;
7835;SDS011;3963;42.658;23.298;2023-02-18T14:50:21;12.10;;;4.70;;
7835;SDS011;3963;42.658;23.298;2023-02-18T14:52:50;8.43;;;4.50;;
7835;SDS011;3963;42.658;23.298;2023-02-18T14:55:21;7.77;;;4.53;;
7835;SDS011;3963;42.658;23.298;2023-02-18T14:57:51;7.40;;;5.27;;
7835;SDS011;3963;42.658;23.298;2023-02-18T15:00:20;10.80;;;4.53;;
7835;SDS011;3963;42.658;23.298;2023-02-18T15:02:52;11.87;;;5.60;;
7835;SDS011;3963;42.658;23.298;2023-02-18T15:05:20;10.47;;;5.63;;
7835;SDS011;3963;42.658;23.298;2023-02-18T15:07:57;15.43;;;5.03;;
7835;SDS011;3963;42.658;23.298;2023-02-18T15:10:33;16.80;;;4.70;;
7835;SDS011;3963;42.658;23.298;2023-02-18T15:13:03;5.47;;;4.47;;
7835;SDS011;3963;42.658;23.298;2023-02-18T15:15:34;9.23;;;4.97;;
7835;SDS011;3963;42.658;23.298;2023-02-18T15:18:01;7.13;;;4.90;;
7835;SDS011;3963;42.658;23.298;2023-02-18T15:20:31;10.60;;;5.43;;
7835;SDS011;3963;42.658;23.298;2023-02-18T15:23:01;8.53;;;4.70;;
7835;SDS011;3963;42.658;23.298;2023-02-18T15:25:28;9.80;;;4.87;;
7835;SDS011;3963;42.658;23.298;2023-02-18T15:27:55;10.03;;;5.17;;
7835;SDS011;3963;42.658;23.298;2023-02-18T15:30:23;7.53;;;5.00;;
7835;SDS011;3963;42.658;23.298;2023-02-18T15:32:54;8.67;;;5.20;;
7835;SDS011;3963;42.658;23.298;2023-02-18T15:35:22;9.30;;;5.53;;